sensor_id;sensor_type;location;lat;lon;timestamp;temperature;humidity
24103;DHT22;12278;53.058;9.028;2022-10-31T00:00:54;13.60;99.90
24103;DHT22;12278;53.058;9.028;2022-10-31T00:04:55;13.60;99.90
24103;DHT22;12278;53.058;9.028;2022-10-31T00:08:56;13.60;99.90
24103;DHT22;12278;53.058;9.028;2022-10-31T00:12:57;13.60;99.90
24103;DHT22;12278;53.058;9.028;2022-10-31T00:16:57;13.50;99.90
24103;DHT22;12278;53.058;9.028;2022-10-31T00:21:00;13.50;99.90
24103;DHT22;12278;53.058;9.028;2022-10-31T00:25:01;13.50;99.90
24103;DHT22;12278;53.058;9.028;2022-10-31T00:29:01;13.60;99.90
24103;DHT22;12278;53.058;9.028;2022-10-31T00:33:03;13.50;99.90
24103;DHT22;12278;53.058;9.028;2022-10-31T00:37:05;13.60;99.90
24103;DHT22;12278;53.058;9.028;2022-10-31T00:41:05;13.60;99.90
24103;DHT22;12278;53.058;9.028;2022-10-31T00:45:06;13.60;99.90
24103;DHT22;12278;53.058;9.028;2022-10-31T00:49:07;13.60;99.90
24103;DHT22;12278;53.058;9.028;2022-10-31T00:53:07;13.60;99.90
24103;DHT22;12278;53.058;9.028;2022-10-31T00:57:08;13.60;99.90
24103;DHT22;12278;53.058;9.028;2022-10-31T01:01:08;13.60;99.90
24103;DHT22;12278;53.058;9.028;2022-10-31T01:05:09;13.50;99.90
24103;DHT22;12278;53.058;9.028;2022-10-31T01:09:09;13.50;99.90
24103;DHT22;12278;53.058;9.028;2022-10-31T01:13:10;13.50;99.90
24103;DHT22;12278;53.058;9.028;2022-10-31T01:17:12;13.50;99.90
24103;DHT22;12278;53.058;9.028;2022-10-31T01:21:16;13.40;99.90
24103;DHT22;12278;53.058;9.028;2022-10-31T01:25:17;13.40;99.90
24103;DHT22;12278;53.058;9.028;2022-10-31T01:29:17;13.40;99.90
24103;DHT22;12278;53.058;9.028;2022-10-31T01:33:18;13.30;99.90
24103;DHT22;12278;53.058;9.028;2022-10-31T01:37:19;13.30;99.90
24103;DHT22;12278;53.058;9.028;2022-10-31T01:41:22;13.30;99.90
24103;DHT22;12278;53.058;9.028;2022-10-31T01:45:23;13.30;99.90
24103;DHT22;12278;53.058;9.028;2022-10-31T01:53:31;13.00;99.90
24103;DHT22;12278;53.058;9.028;2022-10-31T01:57:33;13.10;99.90
24103;DHT22;12278;53.058;9.028;2022-10-31T02:01:36;13.10;99.90
24103;DHT22;12278;53.058;9.028;2022-10-31T02:05:37;13.00;99.90
24103;DHT22;12278;53.058;9.028;2022-10-31T02:09:39;13.00;99.90
24103;DHT22;12278;53.058;9.028;2022-10-31T02:13:40;13.00;99.90
24103;DHT22;12278;53.058;9.028;2022-10-31T02:17:41;12.90;99.90
24103;DHT22;12278;53.058;9.028;2022-10-31T02:22:02;12.80;99.90
24103;DHT22;12278;53.058;9.028;2022-10-31T02:39:48;12.50;99.90
24103;DHT22;12278;53.058;9.028;2022-10-31T02:44:25;12.60;99.90
24103;DHT22;12278;53.058;9.028;2022-10-31T02:48:31;12.60;99.90
24103;DHT22;12278;53.058;9.028;2022-10-31T02:52:35;12.40;99.90
24103;DHT22;12278;53.058;9.028;2022-10-31T02:56:36;12.30;99.90
24103;DHT22;12278;53.058;9.028;2022-10-31T03:14:12;12.00;99.90
24103;DHT22;12278;53.058;9.028;2022-10-31T03:22:28;12.00;99.90
24103;DHT22;12278;53.058;9.028;2022-10-31T03:26:30;12.00;99.90
24103;DHT22;12278;53.058;9.028;2022-10-31T03:30:33;11.90;99.90
24103;DHT22;12278;53.058;9.028;2022-10-31T03:34:37;11.90;99.90
24103;DHT22;12278;53.058;9.028;2022-10-31T03:38:39;11.70;99.90
24103;DHT22;12278;53.058;9.028;2022-10-31T03:42:44;11.70;99.90
24103;DHT22;12278;53.058;9.028;2022-10-31T03:46:46;11.60;99.90
24103;DHT22;12278;53.058;9.028;2022-10-31T03:55:04;11.50;99.90
24103;DHT22;12278;53.058;9.028;2022-10-31T03:59:20;11.30;99.90
24103;DHT22;12278;53.058;9.028;2022-10-31T04:03:27;11.40;99.90
24103;DHT22;12278;53.058;9.028;2022-10-31T04:07:34;11.40;99.90
24103;DHT22;12278;53.058;9.028;2022-10-31T04:11:42;11.50;99.90
24103;DHT22;12278;53.058;9.028;2022-10-31T04:15:44;11.60;99.90
24103;DHT22;12278;53.058;9.028;2022-10-31T04:19:46;11.70;99.90
24103;DHT22;12278;53.058;9.028;2022-10-31T04:23:46;11.70;99.90
24103;DHT22;12278;53.058;9.028;2022-10-31T04:27:47;11.70;99.90
24103;DHT22;12278;53.058;9.028;2022-10-31T04:31:47;11.60;99.90
24103;DHT22;12278;53.058;9.028;2022-10-31T04:35:48;11.60;99.90
24103;DHT22;12278;53.058;9.028;2022-10-31T04:39:48;11.60;99.90
24103;DHT22;12278;53.058;9.028;2022-10-31T04:43:49;11.60;99.90
24103;DHT22;12278;53.058;9.028;2022-10-31T04:47:50;11.50;99.90
24103;DHT22;12278;53.058;9.028;2022-10-31T04:51:50;11.40;99.90
24103;DHT22;12278;53.058;9.028;2022-10-31T04:55:51;11.30;99.90
24103;DHT22;12278;53.058;9.028;2022-10-31T04:59:51;11.40;99.90
24103;DHT22;12278;53.058;9.028;2022-10-31T05:03:52;11.30;99.90
24103;DHT22;12278;53.058;9.028;2022-10-31T05:07:53;11.30;99.90
24103;DHT22;12278;53.058;9.028;2022-10-31T05:11:54;11.20;99.90
24103;DHT22;12278;53.058;9.028;2022-10-31T05:15:54;11.20;99.90
24103;DHT22;12278;53.058;9.028;2022-10-31T05:19:55;11.20;99.90
24103;DHT22;12278;53.058;9.028;2022-10-31T05:23:55;11.10;99.90
24103;DHT22;12278;53.058;9.028;2022-10-31T05:27:56;11.10;99.90
24103;DHT22;12278;53.058;9.028;2022-10-31T05:31:57;11.10;99.90
24103;DHT22;12278;53.058;9.028;2022-10-31T05:35:58;11.10;99.90
24103;DHT22;12278;53.058;9.028;2022-10-31T05:39:59;11.10;99.90
24103;DHT22;12278;53.058;9.028;2022-10-31T05:44:02;11.00;99.90
24103;DHT22;12278;53.058;9.028;2022-10-31T05:48:04;10.90;99.90
24103;DHT22;12278;53.058;9.028;2022-10-31T05:52:05;11.00;99.90
24103;DHT22;12278;53.058;9.028;2022-10-31T05:56:06;11.00;99.90
24103;DHT22;12278;53.058;9.028;2022-10-31T06:00:08;11.10;99.90
24103;DHT22;12278;53.058;9.028;2022-10-31T06:04:09;11.10;99.90
24103;DHT22;12278;53.058;9.028;2022-10-31T06:08:10;11.20;99.90
24103;DHT22;12278;53.058;9.028;2022-10-31T06:12:10;11.10;99.90
24103;DHT22;12278;53.058;9.028;2022-10-31T06:16:11;11.10;99.90
24103;DHT22;12278;53.058;9.028;2022-10-31T06:20:11;11.20;99.90
24103;DHT22;12278;53.058;9.028;2022-10-31T06:24:12;11.20;99.90
24103;DHT22;12278;53.058;9.028;2022-10-31T06:28:13;11.40;99.90
24103;DHT22;12278;53.058;9.028;2022-10-31T06:32:14;11.50;99.90
24103;DHT22;12278;53.058;9.028;2022-10-31T06:36:14;11.60;99.90
24103;DHT22;12278;53.058;9.028;2022-10-31T06:40:15;11.60;99.90
24103;DHT22;12278;53.058;9.028;2022-10-31T06:44:15;11.60;99.90
24103;DHT22;12278;53.058;9.028;2022-10-31T06:48:16;11.60;99.90
24103;DHT22;12278;53.058;9.028;2022-10-31T06:52:17;11.50;99.90
24103;DHT22;12278;53.058;9.028;2022-10-31T06:56:17;11.60;99.90
24103;DHT22;12278;53.058;9.028;2022-10-31T07:00:18;11.60;99.90
24103;DHT22;12278;53.058;9.028;2022-10-31T07:04:19;11.80;99.90
24103;DHT22;12278;53.058;9.028;2022-10-31T07:08:19;11.70;99.90
24103;DHT22;12278;53.058;9.028;2022-10-31T07:12:20;11.60;99.90
24103;DHT22;12278;53.058;9.028;2022-10-31T07:16:21;11.70;99.90
24103;DHT22;12278;53.058;9.028;2022-10-31T07:20:21;11.60;99.90
24103;DHT22;12278;53.058;9.028;2022-10-31T07:24:22;11.60;99.90
24103;DHT22;12278;53.058;9.028;2022-10-31T07:28:22;11.50;99.90
24103;DHT22;12278;53.058;9.028;2022-10-31T07:32:24;11.40;99.90
24103;DHT22;12278;53.058;9.028;2022-10-31T07:36:25;11.50;99.90
24103;DHT22;12278;53.058;9.028;2022-10-31T07:40:27;11.50;99.90
24103;DHT22;12278;53.058;9.028;2022-10-31T07:44:28;11.50;99.90
24103;DHT22;12278;53.058;9.028;2022-10-31T07:48:28;11.60;99.90
24103;DHT22;12278;53.058;9.028;2022-10-31T07:52:29;11.70;99.90
24103;DHT22;12278;53.058;9.028;2022-10-31T07:56:30;11.90;99.90
24103;DHT22;12278;53.058;9.028;2022-10-31T08:00:32;11.90;99.90
24103;DHT22;12278;53.058;9.028;2022-10-31T08:04:33;12.10;99.90
24103;DHT22;12278;53.058;9.028;2022-10-31T08:08:33;12.10;99.90
24103;DHT22;12278;53.058;9.028;2022-10-31T08:12:34;12.20;99.90
24103;DHT22;12278;53.058;9.028;2022-10-31T08:16:34;12.30;99.90
24103;DHT22;12278;53.058;9.028;2022-10-31T08:20:39;12.40;99.90
24103;DHT22;12278;53.058;9.028;2022-10-31T08:24:51;12.50;99.90
24103;DHT22;12278;53.058;9.028;2022-10-31T08:29:02;12.60;99.90
24103;DHT22;12278;53.058;9.028;2022-10-31T08:33:18;12.70;99.90
24103;DHT22;12278;53.058;9.028;2022-10-31T08:37:21;12.70;99.90
24103;DHT22;12278;53.058;9.028;2022-10-31T08:41:22;12.80;99.90
24103;DHT22;12278;53.058;9.028;2022-10-31T08:45:26;12.80;99.90
24103;DHT22;12278;53.058;9.028;2022-10-31T08:49:30;12.90;99.90
24103;DHT22;12278;53.058;9.028;2022-10-31T08:53:34;13.00;99.90
24103;DHT22;12278;53.058;9.028;2022-10-31T08:57:36;13.10;99.90
24103;DHT22;12278;53.058;9.028;2022-10-31T09:01:40;13.10;99.90
24103;DHT22;12278;53.058;9.028;2022-10-31T09:05:40;13.20;99.90
24103;DHT22;12278;53.058;9.028;2022-10-31T09:09:41;13.30;99.90
24103;DHT22;12278;53.058;9.028;2022-10-31T09:13:42;13.20;99.90
24103;DHT22;12278;53.058;9.028;2022-10-31T09:17:48;13.20;99.90
24103;DHT22;12278;53.058;9.028;2022-10-31T09:21:56;13.20;99.90
24103;DHT22;12278;53.058;9.028;2022-10-31T09:25:59;13.20;99.90
24103;DHT22;12278;53.058;9.028;2022-10-31T09:30:02;13.20;99.90
24103;DHT22;12278;53.058;9.028;2022-10-31T09:34:03;13.30;99.90
24103;DHT22;12278;53.058;9.028;2022-10-31T09:38:09;13.40;99.90
24103;DHT22;12278;53.058;9.028;2022-10-31T09:42:41;13.30;99.90
24103;DHT22;12278;53.058;9.028;2022-10-31T09:47:05;13.20;99.90
24103;DHT22;12278;53.058;9.028;2022-10-31T09:51:28;13.30;99.90
24103;DHT22;12278;53.058;9.028;2022-10-31T09:55:45;13.40;99.90
24103;DHT22;12278;53.058;9.028;2022-10-31T09:59:54;13.50;99.90
24103;DHT22;12278;53.058;9.028;2022-10-31T10:04:37;13.60;99.90
24103;DHT22;12278;53.058;9.028;2022-10-31T10:08:47;13.80;99.90
24103;DHT22;12278;53.058;9.028;2022-10-31T10:17:18;13.90;99.90
24103;DHT22;12278;53.058;9.028;2022-10-31T10:21:32;14.40;99.90
24103;DHT22;12278;53.058;9.028;2022-10-31T10:26:01;14.50;99.90
24103;DHT22;12278;53.058;9.028;2022-10-31T10:34:34;15.00;99.90
24103;DHT22;12278;53.058;9.028;2022-10-31T10:43:00;15.00;99.90
24103;DHT22;12278;53.058;9.028;2022-10-31T10:47:24;14.90;99.90
24103;DHT22;12278;53.058;9.028;2022-10-31T10:51:47;14.80;99.90
24103;DHT22;12278;53.058;9.028;2022-10-31T10:56:15;14.90;99.90
24103;DHT22;12278;53.058;9.028;2022-10-31T11:00:30;14.90;99.90
24103;DHT22;12278;53.058;9.028;2022-10-31T11:04:38;15.10;99.90
24103;DHT22;12278;53.058;9.028;2022-10-31T11:08:40;15.10;99.90
24103;DHT22;12278;53.058;9.028;2022-10-31T11:12:43;15.10;99.90
24103;DHT22;12278;53.058;9.028;2022-10-31T11:16:50;14.80;99.90
24103;DHT22;12278;53.058;9.028;2022-10-31T11:20:56;14.80;99.90
24103;DHT22;12278;53.058;9.028;2022-10-31T11:24:58;14.80;99.90
24103;DHT22;12278;53.058;9.028;2022-10-31T11:28:59;15.10;99.90
24103;DHT22;12278;53.058;9.028;2022-10-31T11:33:00;15.50;99.90
24103;DHT22;12278;53.058;9.028;2022-10-31T11:37:23;15.30;99.90
24103;DHT22;12278;53.058;9.028;2022-10-31T11:41:37;15.00;99.90
24103;DHT22;12278;53.058;9.028;2022-10-31T11:45:42;15.00;99.90
24103;DHT22;12278;53.058;9.028;2022-10-31T11:49:47;14.90;99.90
24103;DHT22;12278;53.058;9.028;2022-10-31T11:53:57;14.80;99.90
24103;DHT22;12278;53.058;9.028;2022-10-31T11:57:58;14.80;99.90
24103;DHT22;12278;53.058;9.028;2022-10-31T12:02:01;14.80;99.90
24103;DHT22;12278;53.058;9.028;2022-10-31T12:06:22;14.90;99.90
24103;DHT22;12278;53.058;9.028;2022-10-31T12:10:35;14.90;99.90
24103;DHT22;12278;53.058;9.028;2022-10-31T12:27:40;15.60;99.90
24103;DHT22;12278;53.058;9.028;2022-10-31T12:36:49;15.90;99.90
24103;DHT22;12278;53.058;9.028;2022-10-31T12:49:44;16.00;99.90
24103;DHT22;12278;53.058;9.028;2022-10-31T12:58:06;16.10;99.90
24103;DHT22;12278;53.058;9.028;2022-10-31T13:02:26;15.90;99.90
24103;DHT22;12278;53.058;9.028;2022-10-31T13:06:50;15.60;99.90
24103;DHT22;12278;53.058;9.028;2022-10-31T13:11:13;15.50;99.90
24103;DHT22;12278;53.058;9.028;2022-10-31T13:15:24;15.40;99.90
24103;DHT22;12278;53.058;9.028;2022-10-31T13:19:41;15.40;99.90
24103;DHT22;12278;53.058;9.028;2022-10-31T13:23:43;15.40;99.90
24103;DHT22;12278;53.058;9.028;2022-10-31T13:31:45;15.30;99.90
24103;DHT22;12278;53.058;9.028;2022-10-31T13:35:48;15.30;99.90
24103;DHT22;12278;53.058;9.028;2022-10-31T13:48:37;15.40;99.90
24103;DHT22;12278;53.058;9.028;2022-10-31T13:52:39;15.40;99.90
24103;DHT22;12278;53.058;9.028;2022-10-31T13:56:40;15.50;99.90
24103;DHT22;12278;53.058;9.028;2022-10-31T14:00:40;15.60;99.90
24103;DHT22;12278;53.058;9.028;2022-10-31T14:04:50;15.80;99.90
24103;DHT22;12278;53.058;9.028;2022-10-31T14:08:55;16.20;99.90
24103;DHT22;12278;53.058;9.028;2022-10-31T14:13:18;16.80;99.90
24103;DHT22;12278;53.058;9.028;2022-10-31T14:17:27;16.90;99.90
24103;DHT22;12278;53.058;9.028;2022-10-31T14:21:30;16.30;99.90
24103;DHT22;12278;53.058;9.028;2022-10-31T14:25:36;15.90;99.90
24103;DHT22;12278;53.058;9.028;2022-10-31T14:29:37;15.80;99.90
24103;DHT22;12278;53.058;9.028;2022-10-31T14:33:42;15.70;99.90
24103;DHT22;12278;53.058;9.028;2022-10-31T14:42:17;15.60;99.90
24103;DHT22;12278;53.058;9.028;2022-10-31T14:50:57;15.30;99.90
24103;DHT22;12278;53.058;9.028;2022-10-31T14:55:00;15.10;99.90
24103;DHT22;12278;53.058;9.028;2022-10-31T14:59:05;14.90;99.90
24103;DHT22;12278;53.058;9.028;2022-10-31T15:03:38;14.80;99.90
24103;DHT22;12278;53.058;9.028;2022-10-31T15:08:13;14.70;99.90
24103;DHT22;12278;53.058;9.028;2022-10-31T15:16:39;14.60;99.90
24103;DHT22;12278;53.058;9.028;2022-10-31T15:20:45;14.60;99.90
24103;DHT22;12278;53.058;9.028;2022-10-31T15:24:47;14.50;99.90
24103;DHT22;12278;53.058;9.028;2022-10-31T15:29:10;14.50;99.90
24103;DHT22;12278;53.058;9.028;2022-10-31T15:33:28;14.40;99.90
24103;DHT22;12278;53.058;9.028;2022-10-31T15:37:29;14.30;99.90
24103;DHT22;12278;53.058;9.028;2022-10-31T15:41:59;14.30;99.90
24103;DHT22;12278;53.058;9.028;2022-10-31T15:46:02;14.20;99.90
24103;DHT22;12278;53.058;9.028;2022-10-31T15:50:06;14.20;99.90
24103;DHT22;12278;53.058;9.028;2022-10-31T15:54:18;14.20;99.90
24103;DHT22;12278;53.058;9.028;2022-10-31T15:58:18;14.10;99.90
24103;DHT22;12278;53.058;9.028;2022-10-31T16:02:25;14.00;99.90
24103;DHT22;12278;53.058;9.028;2022-10-31T16:06:26;14.00;99.90
24103;DHT22;12278;53.058;9.028;2022-10-31T16:10:27;13.90;99.90
24103;DHT22;12278;53.058;9.028;2022-10-31T16:14:38;13.90;99.90
24103;DHT22;12278;53.058;9.028;2022-10-31T16:18:41;13.90;99.90
24103;DHT22;12278;53.058;9.028;2022-10-31T16:22:50;13.80;99.90
24103;DHT22;12278;53.058;9.028;2022-10-31T16:27:03;13.80;99.90
24103;DHT22;12278;53.058;9.028;2022-10-31T16:31:13;13.80;99.90
24103;DHT22;12278;53.058;9.028;2022-10-31T16:39:25;13.80;99.90
24103;DHT22;12278;53.058;9.028;2022-10-31T16:43:25;13.80;99.90
24103;DHT22;12278;53.058;9.028;2022-10-31T16:47:26;13.80;99.90
24103;DHT22;12278;53.058;9.028;2022-10-31T16:51:27;13.80;99.90
24103;DHT22;12278;53.058;9.028;2022-10-31T16:55:28;13.80;99.90
24103;DHT22;12278;53.058;9.028;2022-10-31T16:59:29;13.80;99.90
24103;DHT22;12278;53.058;9.028;2022-10-31T17:03:31;13.80;99.90
24103;DHT22;12278;53.058;9.028;2022-10-31T17:07:32;13.90;99.90
24103;DHT22;12278;53.058;9.028;2022-10-31T17:11:33;13.80;99.90
24103;DHT22;12278;53.058;9.028;2022-10-31T17:15:41;13.80;99.90
24103;DHT22;12278;53.058;9.028;2022-10-31T17:19:43;13.80;99.90
24103;DHT22;12278;53.058;9.028;2022-10-31T17:23:44;13.80;99.90
24103;DHT22;12278;53.058;9.028;2022-10-31T17:27:45;13.80;99.90
24103;DHT22;12278;53.058;9.028;2022-10-31T17:31:46;13.90;99.90
24103;DHT22;12278;53.058;9.028;2022-10-31T17:35:47;13.80;99.90
24103;DHT22;12278;53.058;9.028;2022-10-31T17:39:48;13.80;99.90
24103;DHT22;12278;53.058;9.028;2022-10-31T17:43:54;13.90;99.90
24103;DHT22;12278;53.058;9.028;2022-10-31T17:47:55;13.80;99.90
24103;DHT22;12278;53.058;9.028;2022-10-31T17:51:56;13.80;99.90
24103;DHT22;12278;53.058;9.028;2022-10-31T18:00:04;13.70;99.90
24103;DHT22;12278;53.058;9.028;2022-10-31T18:04:05;13.70;99.90
24103;DHT22;12278;53.058;9.028;2022-10-31T18:08:12;13.60;99.90
24103;DHT22;12278;53.058;9.028;2022-10-31T18:12:14;13.60;99.90
24103;DHT22;12278;53.058;9.028;2022-10-31T18:16:16;13.50;99.90
24103;DHT22;12278;53.058;9.028;2022-10-31T18:20:18;13.40;99.90
24103;DHT22;12278;53.058;9.028;2022-10-31T18:24:25;13.40;99.90
24103;DHT22;12278;53.058;9.028;2022-10-31T18:28:27;13.30;99.90
24103;DHT22;12278;53.058;9.028;2022-10-31T18:32:28;13.30;99.90
24103;DHT22;12278;53.058;9.028;2022-10-31T18:36:29;13.20;99.90
24103;DHT22;12278;53.058;9.028;2022-10-31T18:40:30;13.20;99.90
24103;DHT22;12278;53.058;9.028;2022-10-31T18:44:34;13.20;99.90
24103;DHT22;12278;53.058;9.028;2022-10-31T18:48:35;13.10;99.90
24103;DHT22;12278;53.058;9.028;2022-10-31T18:52:36;13.10;99.90
24103;DHT22;12278;53.058;9.028;2022-10-31T18:56:39;13.10;99.90
24103;DHT22;12278;53.058;9.028;2022-10-31T19:00:40;13.10;99.90
24103;DHT22;12278;53.058;9.028;2022-10-31T19:04:41;13.10;99.90
24103;DHT22;12278;53.058;9.028;2022-10-31T19:08:41;13.20;99.90
24103;DHT22;12278;53.058;9.028;2022-10-31T19:12:42;13.20;99.90
24103;DHT22;12278;53.058;9.028;2022-10-31T19:16:43;13.20;99.90
24103;DHT22;12278;53.058;9.028;2022-10-31T19:20:46;13.20;99.90
24103;DHT22;12278;53.058;9.028;2022-10-31T19:24:48;13.20;99.90
24103;DHT22;12278;53.058;9.028;2022-10-31T19:28:48;13.20;99.90
24103;DHT22;12278;53.058;9.028;2022-10-31T19:33:08;13.20;99.90
24103;DHT22;12278;53.058;9.028;2022-10-31T19:37:09;13.20;99.90
24103;DHT22;12278;53.058;9.028;2022-10-31T19:41:18;13.20;99.90
24103;DHT22;12278;53.058;9.028;2022-10-31T19:45:19;13.20;99.90
24103;DHT22;12278;53.058;9.028;2022-10-31T19:49:20;13.10;99.90
24103;DHT22;12278;53.058;9.028;2022-10-31T19:53:21;13.20;99.90
24103;DHT22;12278;53.058;9.028;2022-10-31T19:57:22;13.30;99.90
24103;DHT22;12278;53.058;9.028;2022-10-31T20:01:23;13.40;99.90
24103;DHT22;12278;53.058;9.028;2022-10-31T20:05:23;13.40;99.90
24103;DHT22;12278;53.058;9.028;2022-10-31T20:09:24;13.50;99.90
24103;DHT22;12278;53.058;9.028;2022-10-31T20:13:24;13.50;99.90
24103;DHT22;12278;53.058;9.028;2022-10-31T20:17:25;13.50;99.90
24103;DHT22;12278;53.058;9.028;2022-10-31T20:21:27;13.50;99.90
24103;DHT22;12278;53.058;9.028;2022-10-31T20:25:29;13.50;99.90
24103;DHT22;12278;53.058;9.028;2022-10-31T20:29:31;13.60;99.90
24103;DHT22;12278;53.058;9.028;2022-10-31T20:33:32;13.70;99.90
24103;DHT22;12278;53.058;9.028;2022-10-31T20:37:32;13.70;99.90
24103;DHT22;12278;53.058;9.028;2022-10-31T20:41:35;13.80;99.90
24103;DHT22;12278;53.058;9.028;2022-10-31T20:45:36;13.80;99.90
24103;DHT22;12278;53.058;9.028;2022-10-31T20:49:38;13.80;99.90
24103;DHT22;12278;53.058;9.028;2022-10-31T20:53:39;13.70;99.90
24103;DHT22;12278;53.058;9.028;2022-10-31T20:57:41;13.70;99.90
24103;DHT22;12278;53.058;9.028;2022-10-31T21:01:42;13.70;99.90
24103;DHT22;12278;53.058;9.028;2022-10-31T21:05:50;13.70;99.90
24103;DHT22;12278;53.058;9.028;2022-10-31T21:09:50;13.70;99.90
24103;DHT22;12278;53.058;9.028;2022-10-31T21:13:52;13.70;99.90
24103;DHT22;12278;53.058;9.028;2022-10-31T21:17:53;13.70;99.90
24103;DHT22;12278;53.058;9.028;2022-10-31T21:21:55;13.60;99.90
24103;DHT22;12278;53.058;9.028;2022-10-31T21:25:55;13.60;99.90
24103;DHT22;12278;53.058;9.028;2022-10-31T21:29:56;13.50;99.90
24103;DHT22;12278;53.058;9.028;2022-10-31T21:33:57;13.50;99.90
24103;DHT22;12278;53.058;9.028;2022-10-31T21:37:58;13.60;99.90
24103;DHT22;12278;53.058;9.028;2022-10-31T21:42:03;13.60;99.90
24103;DHT22;12278;53.058;9.028;2022-10-31T21:46:15;13.50;99.90
24103;DHT22;12278;53.058;9.028;2022-10-31T21:50:18;13.50;99.90
24103;DHT22;12278;53.058;9.028;2022-10-31T21:54:18;13.50;99.90
24103;DHT22;12278;53.058;9.028;2022-10-31T21:58:29;13.50;99.90
24103;DHT22;12278;53.058;9.028;2022-10-31T22:02:30;13.40;99.90
24103;DHT22;12278;53.058;9.028;2022-10-31T22:06:30;13.40;99.90
24103;DHT22;12278;53.058;9.028;2022-10-31T22:10:32;13.40;99.90
24103;DHT22;12278;53.058;9.028;2022-10-31T22:14:33;13.30;99.90
24103;DHT22;12278;53.058;9.028;2022-10-31T22:18:34;13.30;99.90
24103;DHT22;12278;53.058;9.028;2022-10-31T22:22:35;13.20;99.90
24103;DHT22;12278;53.058;9.028;2022-10-31T22:26:37;13.40;99.90
24103;DHT22;12278;53.058;9.028;2022-10-31T22:30:42;13.40;99.90
24103;DHT22;12278;53.058;9.028;2022-10-31T22:34:42;13.40;99.90
24103;DHT22;12278;53.058;9.028;2022-10-31T22:38:44;13.40;99.90
24103;DHT22;12278;53.058;9.028;2022-10-31T22:42:45;13.40;99.90
24103;DHT22;12278;53.058;9.028;2022-10-31T22:46:45;13.40;99.90
24103;DHT22;12278;53.058;9.028;2022-10-31T22:50:46;13.40;99.90
24103;DHT22;12278;53.058;9.028;2022-10-31T22:54:48;13.50;99.90
24103;DHT22;12278;53.058;9.028;2022-10-31T22:58:49;13.50;99.90
24103;DHT22;12278;53.058;9.028;2022-10-31T23:02:50;13.50;99.90
24103;DHT22;12278;53.058;9.028;2022-10-31T23:06:50;13.40;99.90
24103;DHT22;12278;53.058;9.028;2022-10-31T23:10:51;13.40;99.90
24103;DHT22;12278;53.058;9.028;2022-10-31T23:14:52;13.40;99.90
24103;DHT22;12278;53.058;9.028;2022-10-31T23:18:53;13.40;99.90
24103;DHT22;12278;53.058;9.028;2022-10-31T23:22:55;13.30;99.90
24103;DHT22;12278;53.058;9.028;2022-10-31T23:26:56;13.30;99.90
24103;DHT22;12278;53.058;9.028;2022-10-31T23:31:09;13.20;99.90
24103;DHT22;12278;53.058;9.028;2022-10-31T23:35:10;13.30;99.90
24103;DHT22;12278;53.058;9.028;2022-10-31T23:39:11;13.30;99.90
24103;DHT22;12278;53.058;9.028;2022-10-31T23:43:15;13.30;99.90
24103;DHT22;12278;53.058;9.028;2022-10-31T23:47:18;13.30;99.90
24103;DHT22;12278;53.058;9.028;2022-10-31T23:51:19;13.20;99.90
24103;DHT22;12278;53.058;9.028;2022-10-31T23:55:20;13.20;99.90
24103;DHT22;12278;53.058;9.028;2022-10-31T23:59:20;13.20;99.90
